sensor_id;sensor_type;location;lat;lon;timestamp;P1;durP1;ratioP1;P2;durP2;ratioP2
24739;SDS011;45234;48.148;17.128;2022-12-17T00:00:14;60.17;;;31.20;;
24739;SDS011;45234;48.148;17.128;2022-12-17T00:02:59;60.95;;;34.80;;
24739;SDS011;45234;48.148;17.128;2022-12-17T00:05:45;64.05;;;32.30;;
24739;SDS011;45234;48.148;17.128;2022-12-17T00:08:30;62.53;;;31.70;;
24739;SDS011;45234;48.148;17.128;2022-12-17T00:11:16;59.45;;;31.05;;
24739;SDS011;45234;48.148;17.128;2022-12-17T00:14:02;56.75;;;30.08;;
24739;SDS011;45234;48.148;17.128;2022-12-17T00:16:47;64.40;;;33.13;;
24739;SDS011;45234;48.148;17.128;2022-12-17T00:19:36;62.75;;;30.40;;
24739;SDS011;45234;48.148;17.128;2022-12-17T00:22:21;62.10;;;31.42;;
24739;SDS011;45234;48.148;17.128;2022-12-17T00:25:07;65.38;;;31.67;;
24739;SDS011;45234;48.148;17.128;2022-12-17T00:27:52;65.80;;;33.60;;
24739;SDS011;45234;48.148;17.128;2022-12-17T00:30:38;66.15;;;32.25;;
24739;SDS011;45234;48.148;17.128;2022-12-17T00:33:23;67.80;;;33.05;;
24739;SDS011;45234;48.148;17.128;2022-12-17T00:36:09;68.47;;;33.70;;
24739;SDS011;45234;48.148;17.128;2022-12-17T00:38:54;70.10;;;34.22;;
24739;SDS011;45234;48.148;17.128;2022-12-17T00:41:39;68.07;;;33.42;;
24739;SDS011;45234;48.148;17.128;2022-12-17T00:44:25;62.90;;;34.00;;
24739;SDS011;45234;48.148;17.128;2022-12-17T00:47:10;67.85;;;35.75;;
24739;SDS011;45234;48.148;17.128;2022-12-17T00:49:55;66.43;;;33.70;;
24739;SDS011;45234;48.148;17.128;2022-12-17T00:52:40;69.85;;;33.40;;
24739;SDS011;45234;48.148;17.128;2022-12-17T00:55:26;66.70;;;33.83;;
24739;SDS011;45234;48.148;17.128;2022-12-17T00:58:11;63.75;;;32.58;;
24739;SDS011;45234;48.148;17.128;2022-12-17T01:00:57;60.75;;;33.30;;
24739;SDS011;45234;48.148;17.128;2022-12-17T01:03:44;66.53;;;33.33;;
24739;SDS011;45234;48.148;17.128;2022-12-17T01:06:29;61.72;;;29.77;;
24739;SDS011;45234;48.148;17.128;2022-12-17T01:09:15;68.25;;;34.47;;
24739;SDS011;45234;48.148;17.128;2022-12-17T01:12:01;62.28;;;31.10;;
24739;SDS011;45234;48.148;17.128;2022-12-17T01:14:47;61.63;;;30.77;;
24739;SDS011;45234;48.148;17.128;2022-12-17T01:17:32;60.38;;;31.60;;
24739;SDS011;45234;48.148;17.128;2022-12-17T01:20:20;64.63;;;31.77;;
24739;SDS011;45234;48.148;17.128;2022-12-17T01:23:07;73.30;;;36.03;;
24739;SDS011;45234;48.148;17.128;2022-12-17T01:25:53;61.17;;;31.50;;
24739;SDS011;45234;48.148;17.128;2022-12-17T01:28:39;64.93;;;29.48;;
24739;SDS011;45234;48.148;17.128;2022-12-17T01:31:25;61.97;;;29.90;;
24739;SDS011;45234;48.148;17.128;2022-12-17T01:34:10;55.75;;;26.83;;
24739;SDS011;45234;48.148;17.128;2022-12-17T01:36:55;56.45;;;28.35;;
24739;SDS011;45234;48.148;17.128;2022-12-17T01:39:40;53.58;;;28.17;;
24739;SDS011;45234;48.148;17.128;2022-12-17T01:42:47;48.20;;;24.85;;
24739;SDS011;45234;48.148;17.128;2022-12-17T01:45:35;47.33;;;24.55;;
24739;SDS011;45234;48.148;17.128;2022-12-17T01:48:31;57.42;;;28.75;;
24739;SDS011;45234;48.148;17.128;2022-12-17T01:51:23;56.10;;;28.83;;
24739;SDS011;45234;48.148;17.128;2022-12-17T01:54:09;52.22;;;26.02;;
24739;SDS011;45234;48.148;17.128;2022-12-17T01:56:58;53.10;;;27.38;;
24739;SDS011;45234;48.148;17.128;2022-12-17T01:59:50;55.92;;;29.02;;
24739;SDS011;45234;48.148;17.128;2022-12-17T02:02:57;65.88;;;32.65;;
24739;SDS011;45234;48.148;17.128;2022-12-17T02:11:54;62.00;;;29.73;;
24739;SDS011;45234;48.148;17.128;2022-12-17T02:14:54;63.22;;;30.02;;
24739;SDS011;45234;48.148;17.128;2022-12-17T02:17:51;60.15;;;30.63;;
24739;SDS011;45234;48.148;17.128;2022-12-17T02:26:46;62.72;;;31.00;;
24739;SDS011;45234;48.148;17.128;2022-12-17T02:29:45;56.70;;;29.95;;
24739;SDS011;45234;48.148;17.128;2022-12-17T02:32:34;63.35;;;30.08;;
24739;SDS011;45234;48.148;17.128;2022-12-17T02:35:24;58.47;;;28.73;;
24739;SDS011;45234;48.148;17.128;2022-12-17T02:38:22;62.55;;;30.90;;
24739;SDS011;45234;48.148;17.128;2022-12-17T02:41:12;62.80;;;31.13;;
24739;SDS011;45234;48.148;17.128;2022-12-17T02:44:05;71.97;;;34.38;;
24739;SDS011;45234;48.148;17.128;2022-12-17T02:46:53;60.53;;;31.33;;
24739;SDS011;45234;48.148;17.128;2022-12-17T02:49:42;59.63;;;29.75;;
24739;SDS011;45234;48.148;17.128;2022-12-17T02:52:32;65.30;;;31.77;;
24739;SDS011;45234;48.148;17.128;2022-12-17T02:55:24;66.95;;;32.97;;
24739;SDS011;45234;48.148;17.128;2022-12-17T02:58:11;67.45;;;34.00;;
24739;SDS011;45234;48.148;17.128;2022-12-17T03:00:58;64.22;;;32.92;;
24739;SDS011;45234;48.148;17.128;2022-12-17T03:03:44;71.85;;;33.42;;
24739;SDS011;45234;48.148;17.128;2022-12-17T03:06:29;71.45;;;33.28;;
24739;SDS011;45234;48.148;17.128;2022-12-17T03:09:15;69.07;;;34.17;;
24739;SDS011;45234;48.148;17.128;2022-12-17T03:12:00;64.55;;;33.20;;
24739;SDS011;45234;48.148;17.128;2022-12-17T03:14:46;67.82;;;34.30;;
24739;SDS011;45234;48.148;17.128;2022-12-17T03:17:31;70.45;;;34.17;;
24739;SDS011;45234;48.148;17.128;2022-12-17T03:20:17;69.75;;;35.38;;
24739;SDS011;45234;48.148;17.128;2022-12-17T03:23:03;72.13;;;35.17;;
24739;SDS011;45234;48.148;17.128;2022-12-17T03:25:50;73.80;;;35.88;;
24739;SDS011;45234;48.148;17.128;2022-12-17T03:28:36;70.28;;;34.85;;
24739;SDS011;45234;48.148;17.128;2022-12-17T03:31:21;76.25;;;37.47;;
24739;SDS011;45234;48.148;17.128;2022-12-17T03:34:07;79.57;;;39.10;;
24739;SDS011;45234;48.148;17.128;2022-12-17T03:36:52;74.22;;;37.70;;
24739;SDS011;45234;48.148;17.128;2022-12-17T03:39:37;75.55;;;38.55;;
24739;SDS011;45234;48.148;17.128;2022-12-17T03:42:23;78.38;;;38.72;;
24739;SDS011;45234;48.148;17.128;2022-12-17T03:45:08;88.40;;;41.80;;
24739;SDS011;45234;48.148;17.128;2022-12-17T03:48:04;83.07;;;39.58;;
24739;SDS011;45234;48.148;17.128;2022-12-17T03:50:54;76.82;;;39.08;;
24739;SDS011;45234;48.148;17.128;2022-12-17T03:53:40;85.93;;;41.60;;
24739;SDS011;45234;48.148;17.128;2022-12-17T03:56:26;78.53;;;40.50;;
24739;SDS011;45234;48.148;17.128;2022-12-17T03:59:11;76.82;;;40.10;;
24739;SDS011;45234;48.148;17.128;2022-12-17T04:01:56;83.68;;;40.55;;
24739;SDS011;45234;48.148;17.128;2022-12-17T04:04:42;78.43;;;38.72;;
24739;SDS011;45234;48.148;17.128;2022-12-17T04:07:28;75.72;;;36.80;;
24739;SDS011;45234;48.148;17.128;2022-12-17T04:10:13;71.55;;;35.75;;
24739;SDS011;45234;48.148;17.128;2022-12-17T04:12:59;79.53;;;38.80;;
24739;SDS011;45234;48.148;17.128;2022-12-17T04:15:45;71.15;;;35.08;;
24739;SDS011;45234;48.148;17.128;2022-12-17T04:18:31;73.30;;;34.60;;
24739;SDS011;45234;48.148;17.128;2022-12-17T04:21:16;70.72;;;34.05;;
24739;SDS011;45234;48.148;17.128;2022-12-17T04:24:01;70.75;;;34.53;;
24739;SDS011;45234;48.148;17.128;2022-12-17T04:26:49;70.95;;;36.30;;
24739;SDS011;45234;48.148;17.128;2022-12-17T04:29:34;65.70;;;34.75;;
24739;SDS011;45234;48.148;17.128;2022-12-17T04:32:20;66.82;;;32.05;;
24739;SDS011;45234;48.148;17.128;2022-12-17T04:35:05;73.68;;;35.22;;
24739;SDS011;45234;48.148;17.128;2022-12-17T04:37:51;65.53;;;33.22;;
24739;SDS011;45234;48.148;17.128;2022-12-17T04:40:36;71.78;;;36.88;;
24739;SDS011;45234;48.148;17.128;2022-12-17T04:43:22;68.10;;;33.55;;
24739;SDS011;45234;48.148;17.128;2022-12-17T04:46:07;72.40;;;34.50;;
24739;SDS011;45234;48.148;17.128;2022-12-17T04:48:52;66.43;;;32.78;;
24739;SDS011;45234;48.148;17.128;2022-12-17T04:51:38;67.93;;;34.25;;
24739;SDS011;45234;48.148;17.128;2022-12-17T04:54:23;66.57;;;33.40;;
24739;SDS011;45234;48.148;17.128;2022-12-17T04:57:08;72.45;;;34.05;;
24739;SDS011;45234;48.148;17.128;2022-12-17T04:59:54;66.82;;;35.65;;
24739;SDS011;45234;48.148;17.128;2022-12-17T05:02:39;71.32;;;36.17;;
24739;SDS011;45234;48.148;17.128;2022-12-17T05:05:27;69.00;;;35.83;;
24739;SDS011;45234;48.148;17.128;2022-12-17T05:08:14;71.50;;;35.05;;
24739;SDS011;45234;48.148;17.128;2022-12-17T05:11:05;60.92;;;32.70;;
24739;SDS011;45234;48.148;17.128;2022-12-17T05:13:50;66.70;;;34.10;;
24739;SDS011;45234;48.148;17.128;2022-12-17T05:16:36;65.10;;;35.72;;
24739;SDS011;45234;48.148;17.128;2022-12-17T05:19:21;69.60;;;35.67;;
24739;SDS011;45234;48.148;17.128;2022-12-17T05:22:07;66.63;;;35.55;;
24739;SDS011;45234;48.148;17.128;2022-12-17T05:24:52;74.93;;;37.60;;
24739;SDS011;45234;48.148;17.128;2022-12-17T05:27:37;65.70;;;34.22;;
24739;SDS011;45234;48.148;17.128;2022-12-17T05:30:23;67.05;;;34.88;;
24739;SDS011;45234;48.148;17.128;2022-12-17T05:33:08;67.38;;;36.25;;
24739;SDS011;45234;48.148;17.128;2022-12-17T05:35:57;65.10;;;34.95;;
24739;SDS011;45234;48.148;17.128;2022-12-17T05:38:45;66.47;;;34.17;;
24739;SDS011;45234;48.148;17.128;2022-12-17T05:41:31;63.40;;;33.90;;
24739;SDS011;45234;48.148;17.128;2022-12-17T05:44:17;67.97;;;36.33;;
24739;SDS011;45234;48.148;17.128;2022-12-17T05:47:02;71.22;;;35.65;;
24739;SDS011;45234;48.148;17.128;2022-12-17T05:49:47;68.93;;;35.05;;
24739;SDS011;45234;48.148;17.128;2022-12-17T05:52:33;65.97;;;33.38;;
24739;SDS011;45234;48.148;17.128;2022-12-17T05:55:18;66.78;;;33.83;;
24739;SDS011;45234;48.148;17.128;2022-12-17T05:58:04;69.13;;;34.78;;
24739;SDS011;45234;48.148;17.128;2022-12-17T06:00:54;71.35;;;35.40;;
24739;SDS011;45234;48.148;17.128;2022-12-17T06:03:43;70.45;;;36.17;;
24739;SDS011;45234;48.148;17.128;2022-12-17T06:06:28;76.90;;;37.75;;
24739;SDS011;45234;48.148;17.128;2022-12-17T06:09:14;65.28;;;34.40;;
24739;SDS011;45234;48.148;17.128;2022-12-17T06:11:59;66.72;;;35.55;;
24739;SDS011;45234;48.148;17.128;2022-12-17T06:14:44;69.60;;;36.05;;
24739;SDS011;45234;48.148;17.128;2022-12-17T06:17:30;70.95;;;35.05;;
24739;SDS011;45234;48.148;17.128;2022-12-17T06:20:15;69.93;;;34.95;;
24739;SDS011;45234;48.148;17.128;2022-12-17T06:23:04;71.60;;;36.25;;
24739;SDS011;45234;48.148;17.128;2022-12-17T06:25:52;70.95;;;35.40;;
24739;SDS011;45234;48.148;17.128;2022-12-17T06:28:38;73.07;;;35.58;;
24739;SDS011;45234;48.148;17.128;2022-12-17T06:31:24;70.57;;;34.83;;
24739;SDS011;45234;48.148;17.128;2022-12-17T06:34:10;73.15;;;36.33;;
24739;SDS011;45234;48.148;17.128;2022-12-17T06:36:57;64.53;;;34.35;;
24739;SDS011;45234;48.148;17.128;2022-12-17T06:39:43;69.03;;;36.15;;
24739;SDS011;45234;48.148;17.128;2022-12-17T06:42:28;73.78;;;37.35;;
24739;SDS011;45234;48.148;17.128;2022-12-17T06:45:13;67.25;;;35.10;;
24739;SDS011;45234;48.148;17.128;2022-12-17T06:48:02;68.18;;;35.15;;
24739;SDS011;45234;48.148;17.128;2022-12-17T06:50:49;72.18;;;37.08;;
24739;SDS011;45234;48.148;17.128;2022-12-17T06:53:38;70.22;;;36.53;;
24739;SDS011;45234;48.148;17.128;2022-12-17T06:56:24;70.57;;;34.83;;
24739;SDS011;45234;48.148;17.128;2022-12-17T06:59:09;68.60;;;36.08;;
24739;SDS011;45234;48.148;17.128;2022-12-17T07:01:54;71.40;;;35.83;;
24739;SDS011;45234;48.148;17.128;2022-12-17T07:04:40;67.47;;;35.90;;
24739;SDS011;45234;48.148;17.128;2022-12-17T07:07:27;71.60;;;36.60;;
24739;SDS011;45234;48.148;17.128;2022-12-17T07:10:13;74.50;;;37.15;;
24739;SDS011;45234;48.148;17.128;2022-12-17T07:13:06;67.78;;;35.88;;
24739;SDS011;45234;48.148;17.128;2022-12-17T07:15:52;71.28;;;35.42;;
24739;SDS011;45234;48.148;17.128;2022-12-17T07:18:38;68.10;;;35.45;;
24739;SDS011;45234;48.148;17.128;2022-12-17T07:21:24;71.40;;;35.13;;
24739;SDS011;45234;48.148;17.128;2022-12-17T07:24:10;71.00;;;36.50;;
24739;SDS011;45234;48.148;17.128;2022-12-17T07:26:56;72.65;;;36.45;;
24739;SDS011;45234;48.148;17.128;2022-12-17T07:29:42;69.70;;;35.50;;
24739;SDS011;45234;48.148;17.128;2022-12-17T07:32:28;67.75;;;34.47;;
24739;SDS011;45234;48.148;17.128;2022-12-17T07:35:13;69.65;;;35.63;;
24739;SDS011;45234;48.148;17.128;2022-12-17T07:37:59;73.68;;;36.92;;
24739;SDS011;45234;48.148;17.128;2022-12-17T07:40:45;71.18;;;35.42;;
24739;SDS011;45234;48.148;17.128;2022-12-17T07:43:31;73.88;;;36.60;;
24739;SDS011;45234;48.148;17.128;2022-12-17T07:46:18;71.18;;;36.97;;
24739;SDS011;45234;48.148;17.128;2022-12-17T07:49:04;69.82;;;35.40;;
24739;SDS011;45234;48.148;17.128;2022-12-17T07:51:50;71.28;;;37.13;;
24739;SDS011;45234;48.148;17.128;2022-12-17T07:54:36;71.60;;;36.05;;
24739;SDS011;45234;48.148;17.128;2022-12-17T07:57:21;77.15;;;37.97;;
24739;SDS011;45234;48.148;17.128;2022-12-17T08:00:07;76.65;;;36.17;;
24739;SDS011;45234;48.148;17.128;2022-12-17T08:02:57;81.25;;;38.08;;
24739;SDS011;45234;48.148;17.128;2022-12-17T08:05:43;80.40;;;38.38;;
24739;SDS011;45234;48.148;17.128;2022-12-17T08:08:29;79.90;;;36.08;;
24739;SDS011;45234;48.148;17.128;2022-12-17T08:11:14;74.97;;;37.85;;
24739;SDS011;45234;48.148;17.128;2022-12-17T08:14:00;74.82;;;36.88;;
24739;SDS011;45234;48.148;17.128;2022-12-17T08:16:45;76.22;;;37.28;;
24739;SDS011;45234;48.148;17.128;2022-12-17T08:19:31;75.20;;;37.13;;
24739;SDS011;45234;48.148;17.128;2022-12-17T08:22:16;74.90;;;37.40;;
24739;SDS011;45234;48.148;17.128;2022-12-17T08:25:01;74.80;;;35.72;;
24739;SDS011;45234;48.148;17.128;2022-12-17T08:27:47;72.43;;;35.80;;
24739;SDS011;45234;48.148;17.128;2022-12-17T08:30:58;76.75;;;37.88;;
24739;SDS011;45234;48.148;17.128;2022-12-17T08:33:43;78.18;;;36.97;;
24739;SDS011;45234;48.148;17.128;2022-12-17T08:36:32;76.88;;;37.53;;
24739;SDS011;45234;48.148;17.128;2022-12-17T08:39:18;70.65;;;35.28;;
24739;SDS011;45234;48.148;17.128;2022-12-17T08:42:03;71.00;;;36.13;;
24739;SDS011;45234;48.148;17.128;2022-12-17T08:44:48;74.10;;;35.85;;
24739;SDS011;45234;48.148;17.128;2022-12-17T08:47:34;81.20;;;38.10;;
24739;SDS011;45234;48.148;17.128;2022-12-17T08:50:28;68.28;;;37.10;;
24739;SDS011;45234;48.148;17.128;2022-12-17T08:53:13;70.75;;;36.53;;
24739;SDS011;45234;48.148;17.128;2022-12-17T08:55:59;71.20;;;37.17;;
24739;SDS011;45234;48.148;17.128;2022-12-17T08:58:45;76.60;;;37.40;;
24739;SDS011;45234;48.148;17.128;2022-12-17T09:01:30;78.03;;;37.85;;
24739;SDS011;45234;48.148;17.128;2022-12-17T09:04:16;69.72;;;36.00;;
24739;SDS011;45234;48.148;17.128;2022-12-17T09:07:02;77.45;;;39.30;;
24739;SDS011;45234;48.148;17.128;2022-12-17T09:09:47;68.18;;;35.17;;
24739;SDS011;45234;48.148;17.128;2022-12-17T09:12:32;72.47;;;36.83;;
24739;SDS011;45234;48.148;17.128;2022-12-17T09:15:18;74.25;;;37.42;;
24739;SDS011;45234;48.148;17.128;2022-12-17T09:18:03;77.25;;;35.47;;
24739;SDS011;45234;48.148;17.128;2022-12-17T09:20:52;67.65;;;35.00;;
24739;SDS011;45234;48.148;17.128;2022-12-17T09:23:38;72.68;;;35.72;;
24739;SDS011;45234;48.148;17.128;2022-12-17T09:26:23;67.65;;;35.10;;
24739;SDS011;45234;48.148;17.128;2022-12-17T09:29:10;71.32;;;36.63;;
24739;SDS011;45234;48.148;17.128;2022-12-17T09:31:55;69.72;;;34.83;;
24739;SDS011;45234;48.148;17.128;2022-12-17T09:34:40;67.00;;;35.58;;
24739;SDS011;45234;48.148;17.128;2022-12-17T09:37:27;68.93;;;35.42;;
24739;SDS011;45234;48.148;17.128;2022-12-17T09:40:17;74.07;;;36.78;;
24739;SDS011;45234;48.148;17.128;2022-12-17T09:49:26;76.32;;;35.88;;
24739;SDS011;45234;48.148;17.128;2022-12-17T09:58:16;65.63;;;33.38;;
24739;SDS011;45234;48.148;17.128;2022-12-17T10:01:19;64.05;;;32.95;;
24739;SDS011;45234;48.148;17.128;2022-12-17T10:04:11;68.95;;;35.28;;
24739;SDS011;45234;48.148;17.128;2022-12-17T10:07:20;62.75;;;33.90;;
24739;SDS011;45234;48.148;17.128;2022-12-17T10:10:29;62.85;;;36.33;;
24739;SDS011;45234;48.148;17.128;2022-12-17T10:13:17;65.22;;;34.17;;
24739;SDS011;45234;48.148;17.128;2022-12-17T10:19:30;69.25;;;34.70;;
24739;SDS011;45234;48.148;17.128;2022-12-17T10:22:19;66.95;;;34.85;;
24739;SDS011;45234;48.148;17.128;2022-12-17T10:25:08;65.97;;;33.53;;
24739;SDS011;45234;48.148;17.128;2022-12-17T10:28:05;67.03;;;33.55;;
24739;SDS011;45234;48.148;17.128;2022-12-17T10:30:55;61.53;;;32.13;;
24739;SDS011;45234;48.148;17.128;2022-12-17T10:33:41;63.50;;;32.70;;
24739;SDS011;45234;48.148;17.128;2022-12-17T10:36:28;63.60;;;33.53;;
24739;SDS011;45234;48.148;17.128;2022-12-17T10:39:21;65.38;;;32.70;;
24739;SDS011;45234;48.148;17.128;2022-12-17T10:54:27;60.33;;;30.75;;
24739;SDS011;45234;48.148;17.128;2022-12-17T10:57:31;59.45;;;31.05;;
24739;SDS011;45234;48.148;17.128;2022-12-17T11:03:25;64.88;;;31.73;;
24739;SDS011;45234;48.148;17.128;2022-12-17T11:06:14;56.35;;;30.95;;
24739;SDS011;45234;48.148;17.128;2022-12-17T11:09:10;60.80;;;31.30;;
24739;SDS011;45234;48.148;17.128;2022-12-17T11:12:06;57.15;;;30.08;;
24739;SDS011;45234;48.148;17.128;2022-12-17T11:14:56;55.60;;;30.35;;
24739;SDS011;45234;48.148;17.128;2022-12-17T11:17:44;58.33;;;30.80;;
24739;SDS011;45234;48.148;17.128;2022-12-17T11:20:45;55.80;;;29.23;;
24739;SDS011;45234;48.148;17.128;2022-12-17T11:23:39;52.15;;;27.75;;
24739;SDS011;45234;48.148;17.128;2022-12-17T11:26:27;56.40;;;29.52;;
24739;SDS011;45234;48.148;17.128;2022-12-17T11:29:17;53.90;;;28.63;;
24739;SDS011;45234;48.148;17.128;2022-12-17T11:41:14;55.08;;;29.10;;
24739;SDS011;45234;48.148;17.128;2022-12-17T11:53:00;55.83;;;27.55;;
24739;SDS011;45234;48.148;17.128;2022-12-17T11:56:07;64.72;;;30.13;;
24739;SDS011;45234;48.148;17.128;2022-12-17T11:59:10;56.70;;;28.95;;
24739;SDS011;45234;48.148;17.128;2022-12-17T12:08:17;56.47;;;28.02;;
24739;SDS011;45234;48.148;17.128;2022-12-17T12:11:14;54.85;;;26.88;;
24739;SDS011;45234;48.148;17.128;2022-12-17T12:29:07;51.88;;;26.27;;
24739;SDS011;45234;48.148;17.128;2022-12-17T12:32:19;50.20;;;26.15;;
24739;SDS011;45234;48.148;17.128;2022-12-17T12:35:04;54.38;;;28.05;;
24739;SDS011;45234;48.148;17.128;2022-12-17T12:37:58;48.20;;;25.80;;
24739;SDS011;45234;48.148;17.128;2022-12-17T12:40:46;52.10;;;26.80;;
24739;SDS011;45234;48.148;17.128;2022-12-17T12:43:45;56.85;;;27.30;;
24739;SDS011;45234;48.148;17.128;2022-12-17T12:46:38;47.83;;;24.70;;
24739;SDS011;45234;48.148;17.128;2022-12-17T12:52:17;50.80;;;25.95;;
24739;SDS011;45234;48.148;17.128;2022-12-17T12:55:06;48.47;;;26.92;;
24739;SDS011;45234;48.148;17.128;2022-12-17T13:06:40;48.50;;;25.35;;
24739;SDS011;45234;48.148;17.128;2022-12-17T13:17:21;44.92;;;21.83;;
24739;SDS011;45234;48.148;17.128;2022-12-17T13:20:00;47.90;;;23.88;;
24739;SDS011;45234;48.148;17.128;2022-12-17T13:22:51;52.13;;;24.55;;
24739;SDS011;45234;48.148;17.128;2022-12-17T13:25:29;47.30;;;23.63;;
24739;SDS011;45234;48.148;17.128;2022-12-17T13:27:56;49.75;;;24.95;;
24739;SDS011;45234;48.148;17.128;2022-12-17T13:46:19;44.72;;;22.80;;
24739;SDS011;45234;48.148;17.128;2022-12-17T13:51:23;47.05;;;23.85;;
24739;SDS011;45234;48.148;17.128;2022-12-17T13:54:00;46.22;;;22.85;;
24739;SDS011;45234;48.148;17.128;2022-12-17T13:56:30;41.60;;;21.95;;
24739;SDS011;45234;48.148;17.128;2022-12-17T13:59:03;42.30;;;21.02;;
24739;SDS011;45234;48.148;17.128;2022-12-17T14:01:42;41.85;;;22.23;;
24739;SDS011;45234;48.148;17.128;2022-12-17T14:06:53;40.42;;;20.65;;
24739;SDS011;45234;48.148;17.128;2022-12-17T14:09:25;44.65;;;20.42;;
24739;SDS011;45234;48.148;17.128;2022-12-17T14:12:03;41.80;;;20.70;;
24739;SDS011;45234;48.148;17.128;2022-12-17T14:14:47;43.35;;;22.90;;
24739;SDS011;45234;48.148;17.128;2022-12-17T14:17:23;43.70;;;22.23;;
24739;SDS011;45234;48.148;17.128;2022-12-17T14:20:14;41.70;;;20.52;;
24739;SDS011;45234;48.148;17.128;2022-12-17T14:22:48;37.05;;;19.20;;
24739;SDS011;45234;48.148;17.128;2022-12-17T14:25:19;43.08;;;20.48;;
24739;SDS011;45234;48.148;17.128;2022-12-17T14:27:56;35.47;;;18.90;;
24739;SDS011;45234;48.148;17.128;2022-12-17T14:33:31;37.08;;;18.65;;
24739;SDS011;45234;48.148;17.128;2022-12-17T14:36:18;36.95;;;19.25;;
24739;SDS011;45234;48.148;17.128;2022-12-17T14:38:51;39.47;;;18.80;;
24739;SDS011;45234;48.148;17.128;2022-12-17T14:41:22;35.75;;;17.88;;
24739;SDS011;45234;48.148;17.128;2022-12-17T14:44:16;39.92;;;18.73;;
24739;SDS011;45234;48.148;17.128;2022-12-17T14:46:46;40.88;;;18.55;;
24739;SDS011;45234;48.148;17.128;2022-12-17T14:49:17;35.42;;;18.65;;
24739;SDS011;45234;48.148;17.128;2022-12-17T14:51:46;38.17;;;18.27;;
24739;SDS011;45234;48.148;17.128;2022-12-17T14:56:51;38.97;;;18.50;;
24739;SDS011;45234;48.148;17.128;2022-12-17T15:01:59;38.72;;;19.63;;
24739;SDS011;45234;48.148;17.128;2022-12-17T15:04:29;36.63;;;18.08;;
24739;SDS011;45234;48.148;17.128;2022-12-17T15:06:57;36.17;;;17.90;;
24739;SDS011;45234;48.148;17.128;2022-12-17T15:09:24;33.60;;;17.50;;
24739;SDS011;45234;48.148;17.128;2022-12-17T15:11:51;39.63;;;18.55;;
24739;SDS011;45234;48.148;17.128;2022-12-17T15:14:17;37.00;;;18.42;;
24739;SDS011;45234;48.148;17.128;2022-12-17T15:16:44;38.10;;;18.75;;
24739;SDS011;45234;48.148;17.128;2022-12-17T15:19:11;36.63;;;18.42;;
24739;SDS011;45234;48.148;17.128;2022-12-17T15:21:38;33.90;;;18.63;;
24739;SDS011;45234;48.148;17.128;2022-12-17T15:24:08;33.20;;;16.25;;
24739;SDS011;45234;48.148;17.128;2022-12-17T15:26:38;37.70;;;18.33;;
24739;SDS011;45234;48.148;17.128;2022-12-17T15:29:05;37.13;;;19.10;;
24739;SDS011;45234;48.148;17.128;2022-12-17T15:31:31;36.35;;;17.88;;
24739;SDS011;45234;48.148;17.128;2022-12-17T15:34:00;36.30;;;18.40;;
24739;SDS011;45234;48.148;17.128;2022-12-17T15:36:28;36.30;;;17.80;;
24739;SDS011;45234;48.148;17.128;2022-12-17T15:38:56;32.38;;;17.77;;
24739;SDS011;45234;48.148;17.128;2022-12-17T15:41:23;33.60;;;18.60;;
24739;SDS011;45234;48.148;17.128;2022-12-17T15:44:09;35.78;;;17.45;;
24739;SDS011;45234;48.148;17.128;2022-12-17T15:46:36;35.58;;;18.50;;
24739;SDS011;45234;48.148;17.128;2022-12-17T15:49:04;39.97;;;19.63;;
24739;SDS011;45234;48.148;17.128;2022-12-17T15:51:31;39.10;;;18.67;;
24739;SDS011;45234;48.148;17.128;2022-12-17T15:53:58;38.40;;;20.02;;
24739;SDS011;45234;48.148;17.128;2022-12-17T15:56:25;37.28;;;18.55;;
24739;SDS011;45234;48.148;17.128;2022-12-17T15:58:56;41.47;;;19.42;;
24739;SDS011;45234;48.148;17.128;2022-12-17T16:01:23;37.95;;;19.35;;
24739;SDS011;45234;48.148;17.128;2022-12-17T16:03:51;36.10;;;18.98;;
24739;SDS011;45234;48.148;17.128;2022-12-17T16:06:18;42.78;;;19.15;;
24739;SDS011;45234;48.148;17.128;2022-12-17T16:08:45;39.72;;;19.45;;
24739;SDS011;45234;48.148;17.128;2022-12-17T16:11:12;37.05;;;18.13;;
24739;SDS011;45234;48.148;17.128;2022-12-17T16:13:40;41.55;;;19.65;;
24739;SDS011;45234;48.148;17.128;2022-12-17T16:16:07;37.78;;;17.85;;
24739;SDS011;45234;48.148;17.128;2022-12-17T16:18:34;40.63;;;19.02;;
24739;SDS011;45234;48.148;17.128;2022-12-17T16:21:04;38.35;;;18.23;;
24739;SDS011;45234;48.148;17.128;2022-12-17T16:23:32;38.40;;;18.85;;
24739;SDS011;45234;48.148;17.128;2022-12-17T16:26:00;35.30;;;19.80;;
24739;SDS011;45234;48.148;17.128;2022-12-17T16:28:28;39.63;;;19.67;;
24739;SDS011;45234;48.148;17.128;2022-12-17T16:33:34;36.38;;;19.55;;
24739;SDS011;45234;48.148;17.128;2022-12-17T16:36:02;44.65;;;21.73;;
24739;SDS011;45234;48.148;17.128;2022-12-17T16:38:30;42.13;;;22.02;;
24739;SDS011;45234;48.148;17.128;2022-12-17T16:40:59;44.80;;;21.13;;
24739;SDS011;45234;48.148;17.128;2022-12-17T16:43:29;42.88;;;21.67;;
24739;SDS011;45234;48.148;17.128;2022-12-17T16:45:58;41.05;;;21.65;;
24739;SDS011;45234;48.148;17.128;2022-12-17T16:48:26;41.95;;;20.27;;
24739;SDS011;45234;48.148;17.128;2022-12-17T16:50:53;44.10;;;22.85;;
24739;SDS011;45234;48.148;17.128;2022-12-17T16:53:20;43.22;;;21.95;;
24739;SDS011;45234;48.148;17.128;2022-12-17T16:55:47;40.20;;;21.83;;
24739;SDS011;45234;48.148;17.128;2022-12-17T16:58:16;37.55;;;19.25;;
24739;SDS011;45234;48.148;17.128;2022-12-17T17:00:43;41.55;;;21.35;;
24739;SDS011;45234;48.148;17.128;2022-12-17T17:03:11;39.45;;;20.58;;
24739;SDS011;45234;48.148;17.128;2022-12-17T17:05:38;45.60;;;21.92;;
24739;SDS011;45234;48.148;17.128;2022-12-17T17:08:05;39.38;;;19.80;;
24739;SDS011;45234;48.148;17.128;2022-12-17T17:10:34;42.88;;;20.75;;
24739;SDS011;45234;48.148;17.128;2022-12-17T17:13:01;44.20;;;21.35;;
24739;SDS011;45234;48.148;17.128;2022-12-17T17:15:28;42.05;;;20.27;;
24739;SDS011;45234;48.148;17.128;2022-12-17T17:17:55;42.30;;;21.25;;
24739;SDS011;45234;48.148;17.128;2022-12-17T17:20:26;42.13;;;21.20;;
24739;SDS011;45234;48.148;17.128;2022-12-17T17:22:57;43.38;;;21.67;;
24739;SDS011;45234;48.148;17.128;2022-12-17T17:25:24;42.53;;;22.25;;
24739;SDS011;45234;48.148;17.128;2022-12-17T17:28:11;46.95;;;21.17;;
24739;SDS011;45234;48.148;17.128;2022-12-17T17:30:38;38.25;;;20.08;;
24739;SDS011;45234;48.148;17.128;2022-12-17T17:33:04;42.35;;;21.23;;
24739;SDS011;45234;48.148;17.128;2022-12-17T17:35:31;42.67;;;21.00;;
24739;SDS011;45234;48.148;17.128;2022-12-17T17:37:58;45.40;;;22.65;;
24739;SDS011;45234;48.148;17.128;2022-12-17T17:40:25;43.13;;;22.75;;
24739;SDS011;45234;48.148;17.128;2022-12-17T17:42:52;43.92;;;20.52;;
24739;SDS011;45234;48.148;17.128;2022-12-17T17:45:19;43.47;;;20.63;;
24739;SDS011;45234;48.148;17.128;2022-12-17T17:47:45;43.03;;;21.50;;
24739;SDS011;45234;48.148;17.128;2022-12-17T17:50:12;45.33;;;21.65;;
24739;SDS011;45234;48.148;17.128;2022-12-17T17:52:39;43.63;;;21.63;;